Time;durP1;ratioP1;P1;durP2;ratioP2;P2;SDS_P1;SDS_P2;PMS_P1;PMS_P2;Temp;Humidity;BMP_temperature;BMP_pressure;BME280_temperature;BME280_humidity;BME280_pressure;Samples;Min_cycle;Max_cycle;Signal;HPM_P1;HPM_P2
2022/11/15 00:02:24;;;;;;;34.15;20.50;;;;;;;;;;5014536;28;20042;-78
2022/11/15 00:04:50;;;;;;;33.00;21.60;;;;;;;;;;5014147;28;20103;-78
2022/11/15 00:07:16;;;;;;;35.53;20.70;;;;;;;;;;4996796;28;20133;-78
2022/11/15 00:09:42;;;;;;;34.42;20.40;;;;;;;;;;4997300;28;20125;-78
2022/11/15 00:12:08;;;;;;;34.97;21.88;;;;;;;;;;5013317;28;20053;-78
2022/11/15 00:14:34;;;;;;;32.72;20.02;;;;;;;;;;4993761;28;20121;-78
2022/11/15 00:17:00;;;;;;;33.65;20.08;;;;;;;;;;4977886;28;20039;-78
2022/11/15 00:19:26;;;;;;;31.00;20.67;;;;;;;;;;4988037;28;20057;-78
2022/11/15 00:21:52;;;;;;;31.98;20.13;;;;;;;;;;4996091;28;20046;-78
2022/11/15 00:24:18;;;;;;;29.08;19.92;;;;;;;;;;5014717;28;20046;-78
2022/11/15 00:26:44;;;;;;;32.47;20.38;;;;;;;;;;4995978;28;20053;-78
2022/11/15 00:29:10;;;;;;;34.78;21.83;;;;;;;;;;5014410;28;20053;-78
2022/11/15 00:31:36;;;;;;;33.85;20.27;;;;;;;;;;4992808;28;20045;-78
2022/11/15 00:34:02;;;;;;;33.92;19.95;;;;;;;;;;5014229;28;20484;-78
2022/11/15 00:36:28;;;;;;;33.40;20.70;;;;;;;;;;5014768;28;20125;-78
2022/11/15 00:38:54;;;;;;;31.02;20.30;;;;;;;;;;5015141;28;20077;-78
2022/11/15 00:41:20;;;;;;;30.58;20.23;;;;;;;;;;4997212;28;20100;-78
2022/11/15 00:43:46;;;;;;;32.13;19.83;;;;;;;;;;5019762;28;20042;-78
2022/11/15 00:46:13;;;;;;;31.83;20.02;;;;;;;;;;5007520;28;20051;-78
2022/11/15 00:48:39;;;;;;;31.38;20.67;;;;;;;;;;4978302;28;20039;-78
2022/11/15 00:51:05;;;;;;;35.70;20.15;;;;;;;;;;4994189;28;20436;-78
2022/11/15 00:53:31;;;;;;;34.88;21.02;;;;;;;;;;5014603;28;20041;-78
2022/11/15 00:55:57;;;;;;;32.92;20.27;;;;;;;;;;4998648;28;20489;-78
2022/11/15 00:58:23;;;;;;;33.03;20.35;;;;;;;;;;4995198;28;20046;-78
2022/11/15 01:00:49;;;;;;;30.02;19.00;;;;;;;;;;5008359;28;20042;-78
2022/11/15 01:03:15;;;;;;;31.88;20.27;;;;;;;;;;4978111;28;20051;-78
2022/11/15 01:05:41;;;;;;;30.80;19.55;;;;;;;;;;5010654;28;20042;-78
2022/11/15 01:08:12;;;;;;;32.40;20.63;;;;;;;;;;5013960;28;20093;-78
2022/11/15 01:10:38;;;;;;;29.25;19.30;;;;;;;;;;5001305;28;20125;-78
2022/11/15 01:13:04;;;;;;;30.38;19.42;;;;;;;;;;5014058;28;20041;-78
2022/11/15 01:15:30;;;;;;;32.40;21.35;;;;;;;;;;5010480;28;20104;-78
2022/11/15 01:17:56;;;;;;;30.70;20.30;;;;;;;;;;5012962;28;20055;-78
2022/11/15 01:20:22;;;;;;;32.97;20.30;;;;;;;;;;4994729;28;20050;-78
2022/11/15 01:22:48;;;;;;;30.25;19.23;;;;;;;;;;4994791;28;20125;-78
2022/11/15 01:25:14;;;;;;;31.30;18.90;;;;;;;;;;5002551;28;20037;-78
2022/11/15 01:27:40;;;;;;;30.77;19.02;;;;;;;;;;5005640;28;20041;-78
2022/11/15 01:30:08;;;;;;;29.98;19.63;;;;;;;;;;5013578;28;20050;-78
2022/11/15 01:32:34;;;;;;;29.48;19.73;;;;;;;;;;4995549;28;20488;-78
2022/11/15 01:35:00;;;;;;;28.92;19.33;;;;;;;;;;4996258;28;20046;-78
2022/11/15 01:37:26;;;;;;;29.88;19.10;;;;;;;;;;4995843;28;20056;-78
2022/11/15 01:39:52;;;;;;;29.77;19.13;;;;;;;;;;5014071;28;20046;-78
2022/11/15 01:42:18;;;;;;;30.33;19.55;;;;;;;;;;4995157;28;20052;-78
2022/11/15 01:44:47;;;;;;;30.40;20.65;;;;;;;;;;5008815;28;20133;-78
2022/11/15 01:47:19;;;;;;;30.77;19.55;;;;;;;;;;5013542;28;20052;-78
2022/11/15 01:49:59;;;;;;;31.17;20.27;;;;;;;;;;4998333;28;20042;-78
2022/11/15 01:52:26;;;;;;;31.10;19.13;;;;;;;;;;4993780;28;20050;-78
2022/11/15 01:55:02;;;;;;;30.80;20.30;;;;;;;;;;5001336;28;20052;-78
2022/11/15 01:57:28;;;;;;;32.83;20.20;;;;;;;;;;5012512;28;20223;-78
2022/11/15 01:59:55;;;;;;;29.58;20.92;;;;;;;;;;5013412;28;20421;-78
2022/11/15 02:02:21;;;;;;;31.45;19.52;;;;;;;;;;5018042;28;20045;-78
2022/11/15 02:04:48;;;;;;;29.67;19.85;;;;;;;;;;5017334;28;20092;-78
2022/11/15 02:07:16;;;;;;;33.55;21.45;;;;;;;;;;5017102;28;20058;-78
2022/11/15 02:09:42;;;;;;;31.38;20.00;;;;;;;;;;5017391;28;20099;-78
2022/11/15 02:12:10;;;;;;;32.08;21.10;;;;;;;;;;5000110;28;20041;-78
2022/11/15 02:14:38;;;;;;;31.23;20.42;;;;;;;;;;4984813;28;20380;-78
2022/11/15 02:17:23;;;;;;;32.28;21.10;;;;;;;;;;5016972;28;20042;-78
2022/11/15 02:19:52;;;;;;;34.13;21.23;;;;;;;;;;4978751;28;20507;-78
2022/11/15 02:22:27;;;;;;;32.33;19.52;;;;;;;;;;5016109;28;20050;-78
2022/11/15 02:25:03;;;;;;;33.97;20.73;;;;;;;;;;4997095;28;20034;-78
2022/11/15 02:27:29;;;;;;;;;;;;;;;;;;5001560;28;20122;-78
2022/11/15 02:30:25;;;;;;;32.45;20.58;;;;;;;;;;4997283;28;20044;-78
2022/11/15 02:32:51;;;;;;;33.92;20.80;;;;;;;;;;4998886;28;20053;-78
2022/11/15 02:35:32;;;;;;;33.58;20.25;;;;;;;;;;5008418;28;20046;-78
2022/11/15 02:38:00;;;;;;;30.85;19.88;;;;;;;;;;5007501;28;20042;-78
2022/11/15 02:40:45;;;;;;;34.85;20.10;;;;;;;;;;4997957;28;20042;-78
2022/11/15 02:46:17;;;;;;;31.75;18.92;;;;;;;;;;5002300;28;20053;-77
2022/11/15 02:48:43;;;;;;;31.58;19.17;;;;;;;;;;5004382;28;20034;-78
2022/11/15 02:51:10;;;;;;;32.15;19.05;;;;;;;;;;4998282;28;20077;-78
2022/11/15 02:53:36;;;;;;;31.40;19.33;;;;;;;;;;5016867;28;20046;-78
2022/11/15 02:56:03;;;;;;;31.33;18.90;;;;;;;;;;5011768;28;20057;-78
2022/11/15 02:58:32;;;;;;;30.55;18.23;;;;;;;;;;5016366;28;20472;-78
2022/11/15 03:00:58;;;;;;;32.20;18.40;;;;;;;;;;5015477;28;20535;-78
2022/11/15 03:03:39;;;;;;;29.50;18.02;;;;;;;;;;5015885;28;20054;-78
2022/11/15 03:06:21;;;;;;;31.08;18.60;;;;;;;;;;5015455;28;20373;-78
2022/11/15 03:09:09;;;;;;;30.05;17.48;;;;;;;;;;5017703;28;20510;-78
2022/11/15 03:11:38;;;;;;;34.42;19.27;;;;;;;;;;5016520;28;20038;-78
2022/11/15 03:14:10;;;;;;;34.22;18.80;;;;;;;;;;5008139;28;20046;-78
2022/11/15 03:16:46;;;;;;;32.85;18.48;;;;;;;;;;5010883;28;20049;-78
2022/11/15 03:19:33;;;;;;;32.50;18.92;;;;;;;;;;5036198;28;20046;-78
2022/11/15 03:22:01;;;;;;;37.05;18.50;;;;;;;;;;5035286;28;20048;-78
2022/11/15 03:24:29;;;;;;;34.83;19.02;;;;;;;;;;5033771;28;20080;-78
2022/11/15 03:26:56;;;;;;;35.85;19.88;;;;;;;;;;5027020;28;20111;-78
2022/11/15 03:29:25;;;;;;;37.78;20.38;;;;;;;;;;5026884;28;20505;-77
2022/11/15 03:32:17;;;;;;;39.15;20.20;;;;;;;;;;5013064;28;20048;-77
2022/11/15 03:35:13;;;;;;;41.03;21.05;;;;;;;;;;5031183;28;20050;-77
2022/11/15 03:37:49;;;;;;;40.67;21.08;;;;;;;;;;5014491;28;20049;-77
2022/11/15 03:40:17;;;;;;;38.58;20.40;;;;;;;;;;5035180;28;20171;-77
2022/11/15 03:42:49;;;;;;;41.90;21.38;;;;;;;;;;5015584;28;20048;-77
2022/11/15 03:45:17;;;;;;;39.80;20.25;;;;;;;;;;5022685;28;20053;-77
2022/11/15 03:47:55;;;;;;;37.85;19.73;;;;;;;;;;5034489;28;20049;-77
2022/11/15 03:50:22;;;;;;;41.80;21.70;;;;;;;;;;5031385;28;20469;-77
2022/11/15 03:52:49;;;;;;;46.10;21.70;;;;;;;;;;5033410;28;20040;-78
2022/11/15 03:55:17;;;;;;;48.28;21.88;;;;;;;;;;5038047;28;20049;-78
2022/11/15 03:57:43;;;;;;;42.45;21.50;;;;;;;;;;5004044;28;20132;-78
2022/11/15 04:00:10;;;;;;;44.83;20.80;;;;;;;;;;5018251;28;20096;-78
2022/11/15 04:02:36;;;;;;;46.28;21.55;;;;;;;;;;5035302;28;20132;-77
2022/11/15 04:05:02;;;;;;;44.65;21.25;;;;;;;;;;5015921;28;20053;-77
2022/11/15 04:07:28;;;;;;;48.20;23.27;;;;;;;;;;5033186;28;20057;-77
2022/11/15 04:10:03;;;;;;;52.03;23.40;;;;;;;;;;5024360;28;20077;-77
2022/11/15 04:12:41;;;;;;;48.83;22.60;;;;;;;;;;5027641;28;20037;-77
2022/11/15 04:15:09;;;;;;;48.15;22.63;;;;;;;;;;5021562;28;20052;-77
2022/11/15 04:17:35;;;;;;;52.65;22.52;;;;;;;;;;5021708;28;20041;-77
2022/11/15 04:25:31;;;;;;;49.28;22.92;;;;;;;;;;4997635;28;20140;-77
2022/11/15 04:27:57;;;;;;;47.83;21.90;;;;;;;;;;5015278;28;20092;-77
2022/11/15 04:30:23;;;;;;;53.20;21.90;;;;;;;;;;4997749;28;20050;-77
2022/11/15 04:32:49;;;;;;;52.08;22.42;;;;;;;;;;5030500;28;20088;-77
2022/11/15 04:35:15;;;;;;;55.22;24.35;;;;;;;;;;5033323;28;20046;-77
2022/11/15 04:37:41;;;;;;;53.45;21.90;;;;;;;;;;5030694;28;20034;-77
2022/11/15 04:40:08;;;;;;;54.05;22.75;;;;;;;;;;5026035;28;20120;-77
2022/11/15 04:42:34;;;;;;;44.92;20.50;;;;;;;;;;5033217;28;20045;-77
2022/11/15 04:45:00;;;;;;;51.25;23.10;;;;;;;;;;5018592;28;20058;-77
2022/11/15 04:47:27;;;;;;;51.28;23.55;;;;;;;;;;5005876;28;20048;-78
2022/11/15 04:49:53;;;;;;;49.63;23.35;;;;;;;;;;5024481;28;20056;-77
2022/11/15 04:52:19;;;;;;;51.45;23.15;;;;;;;;;;5023719;28;20042;-77
2022/11/15 04:54:45;;;;;;;48.05;22.38;;;;;;;;;;5025343;28;20042;-77
2022/11/15 04:57:11;;;;;;;50.72;23.27;;;;;;;;;;5024927;28;20049;-77
2022/11/15 04:59:37;;;;;;;56.20;23.77;;;;;;;;;;5034199;28;20056;-77
2022/11/15 05:02:03;;;;;;;42.65;20.42;;;;;;;;;;5027163;28;20042;-77
2022/11/15 05:04:29;;;;;;;55.78;22.65;;;;;;;;;;5017673;28;20045;-77
2022/11/15 05:06:55;;;;;;;46.58;22.98;;;;;;;;;;5027829;28;20056;-77
2022/11/15 05:09:22;;;;;;;50.40;23.17;;;;;;;;;;5014533;28;20083;-77
2022/11/15 05:11:48;;;;;;;54.25;23.48;;;;;;;;;;5009546;28;20140;-77
2022/11/15 05:14:14;;;;;;;54.28;22.80;;;;;;;;;;5001775;28;20052;-77
2022/11/15 05:16:40;;;;;;;54.25;22.83;;;;;;;;;;5012642;28;20388;-77
2022/11/15 05:19:06;;;;;;;54.70;23.55;;;;;;;;;;5013908;28;20046;-77
2022/11/15 05:21:32;;;;;;;65.03;26.92;;;;;;;;;;5011224;28;20104;-78
2022/11/15 05:23:58;;;;;;;53.17;23.38;;;;;;;;;;4994469;28;20096;-78
2022/11/15 05:26:24;;;;;;;52.35;23.40;;;;;;;;;;4979157;28;20054;-78
2022/11/15 05:28:54;;;;;;;55.50;22.77;;;;;;;;;;4983476;28;20054;-78
2022/11/15 05:31:21;;;;;;;60.40;25.15;;;;;;;;;;4991706;28;20057;-78
2022/11/15 05:33:48;;;;;;;59.30;24.20;;;;;;;;;;4996695;28;20043;-77
2022/11/15 05:36:20;;;;;;;58.35;24.50;;;;;;;;;;4995334;28;20117;-77
2022/11/15 05:38:48;;;;;;;56.08;23.65;;;;;;;;;;4977057;28;20057;-77
2022/11/15 05:41:15;;;;;;;61.92;22.35;;;;;;;;;;4995093;28;20070;-77
2022/11/15 05:43:43;;;;;;;63.83;25.55;;;;;;;;;;5005845;28;20374;-77
2022/11/15 05:46:09;;;;;;;64.53;25.55;;;;;;;;;;5008402;28;20041;-77
2022/11/15 05:48:36;;;;;;;69.00;26.77;;;;;;;;;;5013446;28;20053;-77
2022/11/15 05:51:02;;;;;;;67.10;26.85;;;;;;;;;;4994423;28;20093;-78
2022/11/15 05:53:28;;;;;;;76.38;28.13;;;;;;;;;;4986730;28;20047;-78
2022/11/15 05:55:54;;;;;;;70.15;26.17;;;;;;;;;;5008433;28;20037;-78
2022/11/15 05:58:21;;;;;;;75.15;28.35;;;;;;;;;;4995519;28;20091;-78
2022/11/15 06:00:47;;;;;;;73.88;28.85;;;;;;;;;;5013446;28;20042;-78
2022/11/15 06:03:14;;;;;;;87.68;29.55;;;;;;;;;;4975876;28;20042;-78
2022/11/15 06:05:40;;;;;;;77.03;28.67;;;;;;;;;;4982017;28;20050;-78
2022/11/15 06:08:06;;;;;;;81.57;28.63;;;;;;;;;;5014666;28;20054;-78
2022/11/15 06:10:33;;;;;;;92.60;31.25;;;;;;;;;;5033671;28;20050;-78
2022/11/15 06:12:59;;;;;;;78.93;29.80;;;;;;;;;;5028134;28;20042;-78
2022/11/15 06:15:25;;;;;;;81.22;29.95;;;;;;;;;;5020821;28;20049;-78
2022/11/15 06:17:51;;;;;;;77.15;28.55;;;;;;;;;;5019397;28;20052;-78
2022/11/15 06:20:17;;;;;;;78.68;29.88;;;;;;;;;;5031449;28;20517;-78
2022/11/15 06:22:44;;;;;;;83.15;29.88;;;;;;;;;;5032853;28;20106;-78
2022/11/15 06:25:10;;;;;;;92.45;33.33;;;;;;;;;;5023191;28;21548;-77
2022/11/15 06:27:36;;;;;;;98.50;31.40;;;;;;;;;;5011208;28;20064;-77
2022/11/15 06:30:02;;;;;;;82.43;30.45;;;;;;;;;;5027520;28;20037;-79
2022/11/15 06:32:30;;;;;;;109.97;31.55;;;;;;;;;;5015489;28;20038;-77
2022/11/15 06:34:56;;;;;;;116.75;34.42;;;;;;;;;;5009015;28;20053;-77
2022/11/15 06:37:22;;;;;;;90.90;31.88;;;;;;;;;;5018779;28;20046;-77
2022/11/15 06:39:48;;;;;;;117.18;34.78;;;;;;;;;;5017698;28;20056;-78
2022/11/15 06:42:14;;;;;;;95.00;31.85;;;;;;;;;;5032488;28;20377;-78
2022/11/15 06:44:40;;;;;;;102.70;33.90;;;;;;;;;;5012754;28;20053;-78
2022/11/15 06:47:06;;;;;;;104.63;34.67;;;;;;;;;;5031693;28;20041;-77
2022/11/15 06:49:32;;;;;;;125.25;36.78;;;;;;;;;;5021734;28;20045;-78
2022/11/15 06:51:58;;;;;;;116.07;36.70;;;;;;;;;;5037849;28;20128;-78
2022/11/15 06:54:24;;;;;;;94.03;33.47;;;;;;;;;;5030722;28;20096;-78
2022/11/15 06:56:50;;;;;;;117.95;34.15;;;;;;;;;;5020556;28;20050;-79
2022/11/15 06:59:16;;;;;;;122.85;34.75;;;;;;;;;;5031637;28;20064;-78
2022/11/15 07:01:42;;;;;;;125.47;38.08;;;;;;;;;;5001329;28;20095;-78
2022/11/15 07:04:08;;;;;;;112.70;36.70;;;;;;;;;;5035174;28;20041;-78
2022/11/15 07:06:34;;;;;;;112.82;34.97;;;;;;;;;;5036904;28;20075;-78
2022/11/15 07:09:02;;;;;;;103.88;36.72;;;;;;;;;;5033111;28;20049;-79
2022/11/15 07:11:28;;;;;;;114.15;36.33;;;;;;;;;;5019832;28;20385;-78
2022/11/15 07:13:54;;;;;;;111.80;35.55;;;;;;;;;;5029853;28;20048;-79
2022/11/15 07:16:20;;;;;;;100.82;36.38;;;;;;;;;;5018700;28;20041;-78
2022/11/15 07:18:46;;;;;;;112.13;34.85;;;;;;;;;;5034055;28;20037;-79
2022/11/15 07:21:15;;;;;;;106.88;36.17;;;;;;;;;;4999044;28;20073;-77
2022/11/15 07:23:41;;;;;;;99.57;35.47;;;;;;;;;;5011883;28;20041;-78
2022/11/15 07:26:08;;;;;;;105.65;35.95;;;;;;;;;;5026662;28;20060;-78
2022/11/15 07:28:34;;;;;;;101.18;34.40;;;;;;;;;;5035311;28;20049;-78
2022/11/15 07:31:02;;;;;;;107.95;36.17;;;;;;;;;;5035433;28;20390;-78
2022/11/15 07:33:28;;;;;;;102.32;35.13;;;;;;;;;;5035931;28;20049;-78
2022/11/15 07:35:58;;;;;;;100.30;36.38;;;;;;;;;;5035585;28;20084;-78
2022/11/15 07:38:24;;;;;;;93.88;35.25;;;;;;;;;;5035517;28;20468;-78
2022/11/15 07:40:57;;;;;;;95.20;35.53;;;;;;;;;;5036300;28;20423;-79
2022/11/15 07:43:23;;;;;;;92.65;35.80;;;;;;;;;;5035691;28;20069;-78
2022/11/15 07:45:49;;;;;;;100.05;35.78;;;;;;;;;;5017438;28;20045;-78
2022/11/15 07:48:15;;;;;;;94.22;35.78;;;;;;;;;;5030484;28;20045;-78
2022/11/15 07:50:42;;;;;;;85.78;34.92;;;;;;;;;;5020892;28;20121;-78
2022/11/15 07:53:11;;;;;;;95.55;35.88;;;;;;;;;;5016762;28;20491;-78
2022/11/15 07:55:37;;;;;;;85.45;34.65;;;;;;;;;;5034276;28;20042;-78
2022/11/15 07:58:04;;;;;;;85.40;35.00;;;;;;;;;;5035828;28;20052;-79
2022/11/15 08:00:30;;;;;;;86.60;33.78;;;;;;;;;;5035571;28;20042;-78
2022/11/15 08:03:07;;;;;;;83.32;33.20;;;;;;;;;;5034494;28;20065;-78
2022/11/15 08:05:33;;;;;;;81.10;33.05;;;;;;;;;;5034371;28;20372;-80
2022/11/15 08:08:00;;;;;;;77.85;33.03;;;;;;;;;;5035893;28;20496;-78
2022/11/15 08:10:26;;;;;;;73.63;32.33;;;;;;;;;;5022926;28;20056;-79
2022/11/15 08:12:59;;;;;;;76.03;32.92;;;;;;;;;;5034378;28;20547;-79
2022/11/15 08:15:25;;;;;;;69.50;30.80;;;;;;;;;;5035871;28;20049;-79
2022/11/15 08:17:55;;;;;;;69.75;31.05;;;;;;;;;;5019145;28;20045;-79
2022/11/15 08:20:21;;;;;;;66.25;30.15;;;;;;;;;;5035663;28;20046;-79
2022/11/15 08:22:50;;;;;;;58.53;29.30;;;;;;;;;;5036727;28;20037;-84
2022/11/15 08:25:16;;;;;;;68.85;30.08;;;;;;;;;;5035798;28;20103;-79
2022/11/15 08:27:42;;;;;;;57.55;29.73;;;;;;;;;;5030211;28;20042;-80
2022/11/15 08:30:12;;;;;;;57.83;29.00;;;;;;;;;;5025154;28;20040;-79
2022/11/15 08:32:38;;;;;;;61.95;29.55;;;;;;;;;;5030893;28;20053;-78
2022/11/15 08:35:04;;;;;;;57.88;28.33;;;;;;;;;;5028511;28;20050;-78
2022/11/15 08:37:33;;;;;;;54.58;28.55;;;;;;;;;;5025371;28;20049;-78
2022/11/15 08:39:59;;;;;;;58.85;28.88;;;;;;;;;;5033056;28;20100;-78
2022/11/15 08:42:25;;;;;;;54.22;27.63;;;;;;;;;;5016203;28;20052;-78
2022/11/15 08:44:54;;;;;;;47.33;27.58;;;;;;;;;;5028675;28;20403;-78
2022/11/15 08:47:26;;;;;;;54.90;26.83;;;;;;;;;;5029649;28;20040;-78
2022/11/15 08:49:52;;;;;;;52.63;26.88;;;;;;;;;;5014853;28;20494;-78
2022/11/15 08:52:18;;;;;;;51.10;27.25;;;;;;;;;;5030074;28;20045;-78
2022/11/15 08:54:44;;;;;;;47.30;26.38;;;;;;;;;;5025675;28;20092;-79
2022/11/15 08:57:10;;;;;;;46.85;24.42;;;;;;;;;;5017531;28;20046;-78
2022/11/15 08:59:36;;;;;;;49.95;25.50;;;;;;;;;;5014576;28;20041;-78
2022/11/15 09:02:03;;;;;;;45.97;26.92;;;;;;;;;;5022212;28;20041;-79
2022/11/15 09:04:29;;;;;;;49.83;26.48;;;;;;;;;;5031896;28;20057;-79
2022/11/15 09:06:55;;;;;;;49.50;26.42;;;;;;;;;;5015696;28;20092;-79
2022/11/15 09:09:21;;;;;;;49.85;25.83;;;;;;;;;;5033249;28;20065;-79
2022/11/15 09:11:47;;;;;;;46.03;26.45;;;;;;;;;;5008773;28;20159;-79
2022/11/15 09:14:14;;;;;;;47.60;26.50;;;;;;;;;;5022654;28;20503;-79
2022/11/15 09:16:40;;;;;;;47.30;25.40;;;;;;;;;;5020889;28;20056;-79
2022/11/15 09:19:06;;;;;;;45.40;25.77;;;;;;;;;;5013195;28;20057;-79
2022/11/15 09:21:33;;;;;;;43.55;24.92;;;;;;;;;;5026159;28;20038;-79
2022/11/15 09:23:59;;;;;;;45.40;26.08;;;;;;;;;;5028936;28;20116;-79
2022/11/15 09:26:25;;;;;;;41.15;25.75;;;;;;;;;;5030463;28;20045;-79
2022/11/15 09:28:51;;;;;;;40.00;25.20;;;;;;;;;;5028540;28;20048;-79
2022/11/15 09:31:18;;;;;;;41.90;24.52;;;;;;;;;;5028717;28;20038;-79
2022/11/15 09:33:44;;;;;;;40.50;23.35;;;;;;;;;;5033093;28;20073;-79
2022/11/15 09:36:11;;;;;;;42.00;24.35;;;;;;;;;;5015880;28;20050;-79
2022/11/15 09:38:37;;;;;;;43.90;23.27;;;;;;;;;;5023242;28;20045;-78
2022/11/15 09:41:26;;;;;;;39.10;22.75;;;;;;;;;;5005738;28;20045;-78
2022/11/15 09:44:01;;;;;;;37.35;22.48;;;;;;;;;;4968493;28;20047;-78
2022/11/15 09:46:46;;;;;;;38.67;21.50;;;;;;;;;;4965271;28;20054;-78
2022/11/15 09:49:14;;;;;;;35.65;21.48;;;;;;;;;;4972801;28;20054;-77
2022/11/15 09:51:48;;;;;;;36.05;21.40;;;;;;;;;;4971924;28;20520;-77
2022/11/15 09:54:16;;;;;;;35.00;20.92;;;;;;;;;;4969925;28;20508;-78
2022/11/15 09:56:44;;;;;;;38.33;20.70;;;;;;;;;;4967630;28;20494;-78
2022/11/15 09:59:16;;;;;;;33.97;19.42;;;;;;;;;;4969728;28;20039;-78
2022/11/15 10:01:42;;;;;;;31.80;19.73;;;;;;;;;;4965686;28;20051;-78
2022/11/15 10:04:08;;;;;;;32.45;18.95;;;;;;;;;;4964053;28;20424;-78
2022/11/15 10:06:37;;;;;;;33.63;19.52;;;;;;;;;;4958746;28;20066;-78
2022/11/15 10:09:03;;;;;;;30.33;19.52;;;;;;;;;;4972364;28;20517;-78
2022/11/15 10:11:33;;;;;;;32.38;19.15;;;;;;;;;;4972259;28;20058;-78
2022/11/15 10:14:22;;;;;;;29.80;19.42;;;;;;;;;;4973122;28;20125;-80
2022/11/15 10:17:05;;;;;;;29.05;18.83;;;;;;;;;;4964554;28;20065;-79
2022/11/15 10:19:40;;;;;;;36.78;19.52;;;;;;;;;;4957973;28;20051;-78
2022/11/15 10:22:06;;;;;;;30.90;18.95;;;;;;;;;;5020867;28;20048;-78
2022/11/15 10:24:35;;;;;;;33.05;19.65;;;;;;;;;;5042407;28;20049;-78
2022/11/15 10:27:01;;;;;;;30.95;18.92;;;;;;;;;;5023776;28;20064;-77
2022/11/15 10:29:30;;;;;;;28.75;19.40;;;;;;;;;;5024496;28;20041;-79
2022/11/15 10:31:56;;;;;;;31.08;19.23;;;;;;;;;;5002632;28;20052;-78
2022/11/15 10:34:24;;;;;;;32.30;20.48;;;;;;;;;;5030520;28;20041;-78
2022/11/15 10:37:03;;;;;;;31.70;19.23;;;;;;;;;;5033752;28;20065;-77
2022/11/15 10:39:29;;;;;;;29.42;19.17;;;;;;;;;;5014557;28;20099;-78
2022/11/15 10:41:56;;;;;;;29.55;18.33;;;;;;;;;;5017981;28;20042;-78
2022/11/15 10:44:29;;;;;;;28.23;19.00;;;;;;;;;;5010916;28;20053;-77
2022/11/15 10:46:56;;;;;;;27.08;17.83;;;;;;;;;;5037327;28;20120;-78
2022/11/15 10:49:29;;;;;;;26.98;18.08;;;;;;;;;;5037156;28;20120;-78
2022/11/15 10:52:00;;;;;;;27.75;17.77;;;;;;;;;;5037516;28;20117;-80
2022/11/15 10:54:29;;;;;;;29.73;18.95;;;;;;;;;;5037792;28;20049;-78
2022/11/15 10:56:57;;;;;;;30.65;18.38;;;;;;;;;;5004987;28;20042;-79
2022/11/15 10:59:26;;;;;;;32.90;18.48;;;;;;;;;;5038894;28;20674;-79
2022/11/15 11:01:52;;;;;;;26.25;18.25;;;;;;;;;;5038767;28;20041;-79
2022/11/15 11:04:19;;;;;;;29.13;18.15;;;;;;;;;;5003877;28;20045;-78
2022/11/15 11:06:49;;;;;;;24.17;17.67;;;;;;;;;;5010576;28;20129;-78
2022/11/15 11:09:35;;;;;;;26.90;17.45;;;;;;;;;;4999258;28;20121;-78
2022/11/15 11:12:06;;;;;;;26.38;16.30;;;;;;;;;;5016234;28;20049;-78
2022/11/15 11:14:34;;;;;;;27.95;17.13;;;;;;;;;;5019881;28;20057;-81
2022/11/15 11:17:36;;;;;;;27.52;16.20;;;;;;;;;;5018648;28;20046;-79
2022/11/15 11:20:13;;;;;;;23.73;15.48;;;;;;;;;;4994870;28;20042;-78
2022/11/15 11:22:58;;;;;;;26.05;15.27;;;;;;;;;;5007707;28;20057;-79
2022/11/15 11:25:40;;;;;;;21.17;14.93;;;;;;;;;;5010457;28;20397;-78
2022/11/15 11:28:23;;;;;;;23.50;15.35;;;;;;;;;;5013745;28;20050;-79
2022/11/15 11:30:52;;;;;;;22.08;14.13;;;;;;;;;;5014169;28;20497;-78
2022/11/15 11:33:23;;;;;;;20.92;14.07;;;;;;;;;;5013308;28;20507;-78
2022/11/15 11:35:55;;;;;;;19.33;13.20;;;;;;;;;;5013639;28;20103;-78
2022/11/15 11:38:57;;;;;;;19.15;13.05;;;;;;;;;;5013577;28;20049;-78
2022/11/15 11:41:32;;;;;;;19.30;13.55;;;;;;;;;;4974662;28;20078;-78
2022/11/15 11:44:16;;;;;;;22.50;12.75;;;;;;;;;;4975089;28;20094;-78
2022/11/15 11:46:45;;;;;;;27.35;13.63;;;;;;;;;;4957719;28;20063;-78
2022/11/15 11:49:19;;;;;;;19.58;12.07;;;;;;;;;;4955227;29;20055;-78
2022/11/15 11:52:00;;;;;;;18.80;12.85;;;;;;;;;;4957874;28;20075;-78
2022/11/15 11:54:33;;;;;;;32.65;16.08;;;;;;;;;;4984910;28;20050;-78
2022/11/15 11:57:04;;;;;;;31.10;15.75;;;;;;;;;;5007151;28;20089;-79
2022/11/15 11:59:48;;;;;;;17.88;12.13;;;;;;;;;;4995112;28;20050;-79
2022/11/15 12:02:17;;;;;;;23.45;13.45;;;;;;;;;;4978297;28;20149;-78
2022/11/15 12:04:46;;;;;;;19.45;12.85;;;;;;;;;;4994372;28;20547;-78
2022/11/15 12:07:17;;;;;;;25.88;13.63;;;;;;;;;;4992298;28;20054;-78
2022/11/15 12:09:46;;;;;;;19.90;12.05;;;;;;;;;;4993780;28;20051;-78
2022/11/15 12:12:19;;;;;;;17.63;11.43;;;;;;;;;;4993009;28;20524;-78
2022/11/15 12:14:57;;;;;;;19.02;11.43;;;;;;;;;;5002542;28;20484;-78
2022/11/15 12:17:25;;;;;;;15.75;10.98;;;;;;;;;;5004750;28;20120;-78
2022/11/15 12:19:52;;;;;;;15.27;10.02;;;;;;;;;;5014985;28;20046;-78
2022/11/15 12:22:36;;;;;;;14.23;10.15;;;;;;;;;;5027599;28;20045;-78
2022/11/15 12:25:09;;;;;;;13.90;9.90;;;;;;;;;;5034942;28;20360;-78
2022/11/15 12:27:38;;;;;;;17.38;10.30;;;;;;;;;;5028665;28;20042;-78
2022/11/15 12:30:09;;;;;;;13.13;9.50;;;;;;;;;;5015336;28;20436;-78
2022/11/15 12:32:37;;;;;;;12.25;9.02;;;;;;;;;;5023120;28;20044;-78
2022/11/15 12:35:05;;;;;;;12.57;8.82;;;;;;;;;;5031831;28;20048;-78
2022/11/15 12:37:42;;;;;;;11.95;8.73;;;;;;;;;;5034495;28;20045;-78
2022/11/15 12:40:20;;;;;;;12.05;8.20;;;;;;;;;;5031414;28;20060;-78
2022/11/15 12:42:58;;;;;;;14.73;8.65;;;;;;;;;;5031437;28;20080;-78
2022/11/15 12:45:27;;;;;;;12.13;8.40;;;;;;;;;;5008995;28;20046;-78
2022/11/15 12:47:53;;;;;;;11.60;7.85;;;;;;;;;;5002286;28;20049;-77
2022/11/15 12:50:43;;;;;;;9.63;7.40;;;;;;;;;;5016452;28;20046;-77
2022/11/15 12:53:24;;;;;;;9.35;6.63;;;;;;;;;;5009078;28;20504;-78
2022/11/15 12:56:09;;;;;;;10.63;6.68;;;;;;;;;;5016221;28;20037;-78
2022/11/15 12:58:49;;;;;;;10.68;6.80;;;;;;;;;;5033919;28;20079;-78
2022/11/15 13:01:33;;;;;;;9.73;6.20;;;;;;;;;;5034254;28;20052;-78
2022/11/15 13:04:32;;;;;;;10.73;6.82;;;;;;;;;;5033610;28;20048;-78
2022/11/15 13:07:03;;;;;;;8.20;6.28;;;;;;;;;;5008964;28;20056;-78
2022/11/15 13:09:35;;;;;;;9.32;6.60;;;;;;;;;;5029048;28;20073;-78
2022/11/15 13:12:02;;;;;;;8.52;6.50;;;;;;;;;;5034222;28;20049;-78
2022/11/15 13:14:37;;;;;;;8.82;6.57;;;;;;;;;;5016480;28;20096;-78
2022/11/15 13:17:22;;;;;;;11.35;6.93;;;;;;;;;;5033852;28;20042;-78
2022/11/15 13:19:49;;;;;;;9.80;6.78;;;;;;;;;;5027903;28;20735;-79
2022/11/15 13:25:01;;;;;;;10.18;7.07;;;;;;;;;;5014310;28;20050;-78
2022/11/15 13:27:27;;;;;;;9.07;6.50;;;;;;;;;;5026532;28;20052;-79
2022/11/15 13:29:54;;;;;;;9.23;6.32;;;;;;;;;;5016268;28;20053;-78
2022/11/15 13:32:20;;;;;;;8.65;6.18;;;;;;;;;;5033389;28;20119;-78
2022/11/15 13:34:47;;;;;;;10.15;6.50;;;;;;;;;;5033513;28;20077;-78
2022/11/15 13:37:22;;;;;;;7.65;5.63;;;;;;;;;;5028357;28;20515;-78
2022/11/15 13:39:49;;;;;;;7.03;5.63;;;;;;;;;;5032200;28;20043;-78
2022/11/15 13:42:15;;;;;;;6.82;4.22;;;;;;;;;;5014694;28;20555;-78
2022/11/15 13:44:54;;;;;;;7.43;5.07;;;;;;;;;;5014143;28;20055;-78
2022/11/15 13:47:21;;;;;;;5.70;4.55;;;;;;;;;;5035078;28;20037;-78
2022/11/15 13:49:47;;;;;;;7.43;4.90;;;;;;;;;;5033513;28;20045;-78
2022/11/15 13:52:16;;;;;;;6.80;4.10;;;;;;;;;;5033173;28;20045;-79
2022/11/15 13:54:43;;;;;;;8.15;5.05;;;;;;;;;;5032448;28;20079;-78
2022/11/15 13:57:13;;;;;;;7.45;4.30;;;;;;;;;;5033276;28;20045;-78
2022/11/15 13:59:45;;;;;;;6.05;3.97;;;;;;;;;;5033138;28;20045;-78
2022/11/15 14:02:13;;;;;;;6.80;4.10;;;;;;;;;;5020359;28;20045;-77
2022/11/15 14:04:39;;;;;;;5.72;3.95;;;;;;;;;;5033284;28;20049;-77
2022/11/15 14:07:05;;;;;;;5.53;4.10;;;;;;;;;;5014816;28;20049;-77
2022/11/15 14:09:40;;;;;;;5.47;3.80;;;;;;;;;;5033647;28;20131;-77
2022/11/15 14:12:25;;;;;;;5.18;4.13;;;;;;;;;;5033382;28;20041;-78
2022/11/15 14:14:51;;;;;;;5.65;3.88;;;;;;;;;;5020183;28;20489;-78
2022/11/15 14:17:35;;;;;;;8.52;3.70;;;;;;;;;;5033006;28;20526;-78
2022/11/15 14:20:02;;;;;;;6.43;3.80;;;;;;;;;;5020639;28;20052;-78
2022/11/15 14:22:29;;;;;;;5.20;4.10;;;;;;;;;;5032889;28;20111;-78
2022/11/15 14:25:17;;;;;;;4.63;4.07;;;;;;;;;;5015484;28;20080;-78
2022/11/15 14:27:45;;;;;;;4.65;4.05;;;;;;;;;;5033752;28;20053;-79
2022/11/15 14:30:29;;;;;;;6.05;4.30;;;;;;;;;;5011422;28;20072;-78
2022/11/15 14:32:55;;;;;;;5.97;4.40;;;;;;;;;;5025138;28;20496;-78
2022/11/15 14:35:22;;;;;;;5.43;3.80;;;;;;;;;;5013302;28;20053;-78
2022/11/15 14:37:48;;;;;;;4.57;3.97;;;;;;;;;;5027703;28;20069;-78
2022/11/15 14:40:16;;;;;;;5.68;3.95;;;;;;;;;;5033426;28;20184;-78
2022/11/15 14:42:44;;;;;;;4.80;3.63;;;;;;;;;;5014651;28;20175;-77
2022/11/15 14:45:14;;;;;;;4.93;3.63;;;;;;;;;;5024684;28;20531;-77
2022/11/15 14:47:40;;;;;;;6.70;4.05;;;;;;;;;;5024551;28;20119;-77